sensor_id;sensor_type;location;lat;lon;timestamp;P1;durP1;ratioP1;P2;durP2;ratioP2
40555;SDS011;26250;45.422;11.100;2023-08-21T16:33:57;12.38;;;8.88;;
40555;SDS011;26250;45.422;11.100;2023-08-21T16:36:24;11.88;;;8.05;;
40555;SDS011;26250;45.422;11.100;2023-08-21T16:38:51;12.82;;;8.25;;
40555;SDS011;26250;45.422;11.100;2023-08-21T16:41:18;9.85;;;7.80;;
40555;SDS011;26250;45.422;11.100;2023-08-21T16:43:45;15.75;;;8.35;;
40555;SDS011;26250;45.422;11.100;2023-08-21T16:46:12;13.88;;;8.25;;
40555;SDS011;26250;45.422;11.100;2023-08-21T16:48:39;14.93;;;9.05;;
40555;SDS011;26250;45.422;11.100;2023-08-21T16:51:06;12.77;;;8.10;;
40555;SDS011;26250;45.422;11.100;2023-08-21T16:53:33;14.77;;;9.05;;
40555;SDS011;26250;45.422;11.100;2023-08-21T16:56:00;11.27;;;8.27;;
40555;SDS011;26250;45.422;11.100;2023-08-21T16:58:27;10.65;;;7.85;;
40555;SDS011;26250;45.422;11.100;2023-08-21T17:00:54;12.27;;;7.72;;
40555;SDS011;26250;45.422;11.100;2023-08-21T17:03:21;15.23;;;7.78;;
40555;SDS011;26250;45.422;11.100;2023-08-21T17:05:48;18.45;;;7.53;;
40555;SDS011;26250;45.422;11.100;2023-08-21T17:08:15;14.98;;;7.47;;
40555;SDS011;26250;45.422;11.100;2023-08-21T17:10:42;21.08;;;9.05;;
40555;SDS011;26250;45.422;11.100;2023-08-21T17:13:09;11.88;;;8.65;;
40555;SDS011;26250;45.422;11.100;2023-08-21T17:15:38;13.25;;;8.02;;
40555;SDS011;26250;45.422;11.100;2023-08-21T17:18:05;35.85;;;8.80;;
40555;SDS011;26250;45.422;11.100;2023-08-21T17:20:33;18.27;;;8.63;;
40555;SDS011;26250;45.422;11.100;2023-08-21T17:23:00;8.45;;;7.53;;
40555;SDS011;26250;45.422;11.100;2023-08-21T17:25:27;8.27;;;7.45;;
40555;SDS011;26250;45.422;11.100;2023-08-21T17:27:54;13.35;;;7.40;;
40555;SDS011;26250;45.422;11.100;2023-08-21T17:30:21;19.17;;;8.25;;
40555;SDS011;26250;45.422;11.100;2023-08-21T17:32:48;11.65;;;8.25;;
40555;SDS011;26250;45.422;11.100;2023-08-21T17:35:15;17.90;;;8.65;;
40555;SDS011;26250;45.422;11.100;2023-08-21T17:37:42;13.07;;;7.15;;
40555;SDS011;26250;45.422;11.100;2023-08-21T17:40:09;16.02;;;8.65;;
40555;SDS011;26250;45.422;11.100;2023-08-21T17:42:36;13.30;;;8.18;;
40555;SDS011;26250;45.422;11.100;2023-08-21T17:45:04;15.93;;;8.88;;
40555;SDS011;26250;45.422;11.100;2023-08-21T17:47:34;21.38;;;9.55;;
40555;SDS011;26250;45.422;11.100;2023-08-21T17:50:01;20.23;;;9.40;;
40555;SDS011;26250;45.422;11.100;2023-08-21T17:52:28;17.98;;;8.55;;
40555;SDS011;26250;45.422;11.100;2023-08-21T17:54:55;11.50;;;8.55;;
40555;SDS011;26250;45.422;11.100;2023-08-21T17:57:24;23.67;;;9.25;;
40555;SDS011;26250;45.422;11.100;2023-08-21T17:59:51;18.73;;;8.75;;
40555;SDS011;26250;45.422;11.100;2023-08-21T18:02:18;12.55;;;8.70;;
40555;SDS011;26250;45.422;11.100;2023-08-21T18:04:48;24.20;;;9.85;;
40555;SDS011;26250;45.422;11.100;2023-08-21T18:07:15;16.52;;;8.52;;
40555;SDS011;26250;45.422;11.100;2023-08-21T18:09:42;10.85;;;8.95;;
40555;SDS011;26250;45.422;11.100;2023-08-21T18:12:09;18.70;;;9.02;;
40555;SDS011;26250;45.422;11.100;2023-08-21T18:14:36;9.68;;;8.60;;
40555;SDS011;26250;45.422;11.100;2023-08-21T18:17:03;18.38;;;9.25;;
40555;SDS011;26250;45.422;11.100;2023-08-21T18:22:12;11.43;;;9.18;;
40555;SDS011;26250;45.422;11.100;2023-08-21T18:24:39;15.50;;;8.63;;
40555;SDS011;26250;45.422;11.100;2023-08-21T18:27:06;14.70;;;8.77;;
40555;SDS011;26250;45.422;11.100;2023-08-21T18:29:33;21.48;;;9.30;;
40555;SDS011;26250;45.422;11.100;2023-08-21T18:32:07;15.05;;;9.43;;
40555;SDS011;26250;45.422;11.100;2023-08-21T18:34:35;14.68;;;9.82;;
40555;SDS011;26250;45.422;11.100;2023-08-21T18:37:06;15.38;;;9.32;;
40555;SDS011;26250;45.422;11.100;2023-08-21T18:39:34;10.10;;;9.05;;
40555;SDS011;26250;45.422;11.100;2023-08-21T18:42:01;15.65;;;9.70;;
40555;SDS011;26250;45.422;11.100;2023-08-21T18:44:28;13.40;;;8.63;;
40555;SDS011;26250;45.422;11.100;2023-08-21T18:46:55;14.05;;;9.40;;
40555;SDS011;26250;45.422;11.100;2023-08-21T18:49:23;16.45;;;9.55;;
40555;SDS011;26250;45.422;11.100;2023-08-21T18:51:50;12.93;;;8.48;;
40555;SDS011;26250;45.422;11.100;2023-08-21T18:54:17;15.27;;;8.80;;
40555;SDS011;26250;45.422;11.100;2023-08-21T18:56:53;11.48;;;8.40;;
40555;SDS011;26250;45.422;11.100;2023-08-21T18:59:20;12.20;;;9.35;;
40555;SDS011;26250;45.422;11.100;2023-08-21T19:01:47;11.43;;;8.68;;
40555;SDS011;26250;45.422;11.100;2023-08-21T19:04:14;17.08;;;9.43;;
40555;SDS011;26250;45.422;11.100;2023-08-21T19:06:44;12.43;;;9.23;;
40555;SDS011;26250;45.422;11.100;2023-08-21T19:09:29;14.25;;;9.60;;
40555;SDS011;26250;45.422;11.100;2023-08-21T19:11:59;15.05;;;9.30;;
40555;SDS011;26250;45.422;11.100;2023-08-21T19:14:26;14.93;;;9.80;;
40555;SDS011;26250;45.422;11.100;2023-08-21T19:16:53;15.68;;;10.52;;
40555;SDS011;26250;45.422;11.100;2023-08-21T19:19:21;28.38;;;11.25;;
40555;SDS011;26250;45.422;11.100;2023-08-21T19:21:49;14.27;;;10.07;;
40555;SDS011;26250;45.422;11.100;2023-08-21T19:24:16;21.63;;;10.50;;
40555;SDS011;26250;45.422;11.100;2023-08-21T19:26:43;10.10;;;7.93;;
40555;SDS011;26250;45.422;11.100;2023-08-21T19:29:11;10.95;;;9.85;;
40555;SDS011;26250;45.422;11.100;2023-08-21T19:31:38;24.27;;;10.90;;
40555;SDS011;26250;45.422;11.100;2023-08-21T19:34:05;13.52;;;11.60;;
40555;SDS011;26250;45.422;11.100;2023-08-21T19:36:32;15.50;;;10.30;;
40555;SDS011;26250;45.422;11.100;2023-08-21T19:38:59;16.35;;;10.23;;
40555;SDS011;26250;45.422;11.100;2023-08-21T19:41:26;23.02;;;11.65;;
40555;SDS011;26250;45.422;11.100;2023-08-21T19:43:53;12.65;;;9.95;;
40555;SDS011;26250;45.422;11.100;2023-08-21T19:46:20;13.35;;;11.02;;
40555;SDS011;26250;45.422;11.100;2023-08-21T19:48:47;16.50;;;9.88;;
40555;SDS011;26250;45.422;11.100;2023-08-21T19:51:14;15.10;;;9.68;;
40555;SDS011;26250;45.422;11.100;2023-08-21T19:53:41;14.77;;;9.25;;
40555;SDS011;26250;45.422;11.100;2023-08-21T19:56:08;12.57;;;10.38;;
40555;SDS011;26250;45.422;11.100;2023-08-21T19:58:34;13.35;;;9.98;;
40555;SDS011;26250;45.422;11.100;2023-08-21T20:01:04;13.70;;;10.15;;
40555;SDS011;26250;45.422;11.100;2023-08-21T20:03:33;14.40;;;10.73;;
40555;SDS011;26250;45.422;11.100;2023-08-21T20:06:00;14.32;;;11.13;;
40555;SDS011;26250;45.422;11.100;2023-08-21T20:08:31;11.65;;;10.45;;
40555;SDS011;26250;45.422;11.100;2023-08-21T20:11:01;14.35;;;10.73;;
40555;SDS011;26250;45.422;11.100;2023-08-21T20:13:29;10.17;;;9.23;;
40555;SDS011;26250;45.422;11.100;2023-08-21T20:15:56;13.23;;;9.55;;
40555;SDS011;26250;45.422;11.100;2023-08-21T20:18:23;19.73;;;9.75;;
40555;SDS011;26250;45.422;11.100;2023-08-21T20:20:50;16.42;;;10.50;;
40555;SDS011;26250;45.422;11.100;2023-08-21T20:23:17;19.17;;;10.82;;
40555;SDS011;26250;45.422;11.100;2023-08-21T20:25:45;14.73;;;10.27;;
40555;SDS011;26250;45.422;11.100;2023-08-21T20:28:12;22.88;;;10.40;;
40555;SDS011;26250;45.422;11.100;2023-08-21T20:30:42;21.02;;;11.10;;
40555;SDS011;26250;45.422;11.100;2023-08-21T20:33:09;11.48;;;10.30;;
40555;SDS011;26250;45.422;11.100;2023-08-21T20:35:36;13.88;;;10.98;;
40555;SDS011;26250;45.422;11.100;2023-08-21T20:38:02;20.10;;;11.05;;
40555;SDS011;26250;45.422;11.100;2023-08-21T20:40:30;17.38;;;11.02;;
40555;SDS011;26250;45.422;11.100;2023-08-21T20:42:57;18.52;;;11.38;;
40555;SDS011;26250;45.422;11.100;2023-08-21T20:45:24;15.43;;;10.45;;
40555;SDS011;26250;45.422;11.100;2023-08-21T20:47:51;12.55;;;11.07;;
40555;SDS011;26250;45.422;11.100;2023-08-21T20:50:19;12.93;;;10.82;;
40555;SDS011;26250;45.422;11.100;2023-08-21T20:52:46;18.27;;;11.32;;
40555;SDS011;26250;45.422;11.100;2023-08-21T20:55:14;26.08;;;11.18;;
40555;SDS011;26250;45.422;11.100;2023-08-21T20:57:41;10.77;;;9.73;;
40555;SDS011;26250;45.422;11.100;2023-08-21T21:00:08;14.18;;;10.52;;
40555;SDS011;26250;45.422;11.100;2023-08-21T21:02:37;14.02;;;12.27;;
40555;SDS011;26250;45.422;11.100;2023-08-21T21:05:05;15.25;;;11.70;;
40555;SDS011;26250;45.422;11.100;2023-08-21T21:07:33;18.92;;;10.95;;
40555;SDS011;26250;45.422;11.100;2023-08-21T21:10:01;13.27;;;11.60;;
40555;SDS011;26250;45.422;11.100;2023-08-21T21:12:32;12.93;;;11.70;;
40555;SDS011;26250;45.422;11.100;2023-08-21T21:15:00;13.15;;;11.75;;
40555;SDS011;26250;45.422;11.100;2023-08-21T21:17:29;11.32;;;10.13;;
40555;SDS011;26250;45.422;11.100;2023-08-21T21:19:56;15.80;;;10.85;;
40555;SDS011;26250;45.422;11.100;2023-08-21T21:22:23;15.68;;;10.77;;
40555;SDS011;26250;45.422;11.100;2023-08-21T21:24:54;11.75;;;10.30;;
40555;SDS011;26250;45.422;11.100;2023-08-21T21:27:20;17.83;;;11.20;;
40555;SDS011;26250;45.422;11.100;2023-08-21T21:29:47;12.43;;;11.30;;
40555;SDS011;26250;45.422;11.100;2023-08-21T21:32:14;14.20;;;11.15;;
40555;SDS011;26250;45.422;11.100;2023-08-21T21:34:42;12.93;;;11.57;;
40555;SDS011;26250;45.422;11.100;2023-08-21T21:37:09;11.45;;;10.27;;
40555;SDS011;26250;45.422;11.100;2023-08-21T21:39:36;13.00;;;11.20;;
40555;SDS011;26250;45.422;11.100;2023-08-21T21:42:03;13.85;;;11.52;;
40555;SDS011;26250;45.422;11.100;2023-08-21T21:44:33;12.75;;;11.20;;
40555;SDS011;26250;45.422;11.100;2023-08-21T21:47:00;14.73;;;12.07;;
40555;SDS011;26250;45.422;11.100;2023-08-21T21:49:27;16.23;;;11.65;;
40555;SDS011;26250;45.422;11.100;2023-08-21T21:51:54;16.38;;;11.93;;
40555;SDS011;26250;45.422;11.100;2023-08-21T21:54:24;15.38;;;11.65;;
40555;SDS011;26250;45.422;11.100;2023-08-21T21:56:51;15.05;;;12.05;;
40555;SDS011;26250;45.422;11.100;2023-08-21T21:59:18;12.40;;;11.18;;
40555;SDS011;26250;45.422;11.100;2023-08-21T22:01:45;19.65;;;11.60;;
40555;SDS011;26250;45.422;11.100;2023-08-21T22:04:12;14.80;;;11.68;;
40555;SDS011;26250;45.422;11.100;2023-08-21T22:06:39;13.85;;;12.45;;
40555;SDS011;26250;45.422;11.100;2023-08-21T22:09:06;16.38;;;12.30;;
40555;SDS011;26250;45.422;11.100;2023-08-21T22:11:33;13.43;;;12.15;;
40555;SDS011;26250;45.422;11.100;2023-08-21T22:14:01;15.48;;;11.27;;
40555;SDS011;26250;45.422;11.100;2023-08-21T22:16:29;14.18;;;12.48;;
40555;SDS011;26250;45.422;11.100;2023-08-21T22:18:56;21.63;;;12.40;;
40555;SDS011;26250;45.422;11.100;2023-08-21T22:21:22;15.77;;;12.20;;
40555;SDS011;26250;45.422;11.100;2023-08-21T22:23:49;13.18;;;11.55;;
40555;SDS011;26250;45.422;11.100;2023-08-21T22:26:16;14.13;;;11.52;;
40555;SDS011;26250;45.422;11.100;2023-08-21T22:28:43;16.23;;;12.30;;
40555;SDS011;26250;45.422;11.100;2023-08-21T22:31:10;13.57;;;12.07;;
40555;SDS011;26250;45.422;11.100;2023-08-21T22:33:38;13.23;;;11.82;;
40555;SDS011;26250;45.422;11.100;2023-08-21T22:36:05;12.50;;;11.32;;
40555;SDS011;26250;45.422;11.100;2023-08-21T22:38:32;16.70;;;13.90;;
40555;SDS011;26250;45.422;11.100;2023-08-21T22:41:01;17.75;;;13.90;;
40555;SDS011;26250;45.422;11.100;2023-08-21T22:43:29;13.45;;;12.27;;
40555;SDS011;26250;45.422;11.100;2023-08-21T22:45:56;14.15;;;12.63;;
40555;SDS011;26250;45.422;11.100;2023-08-21T22:48:23;13.57;;;12.15;;
40555;SDS011;26250;45.422;11.100;2023-08-21T22:50:50;16.58;;;13.20;;
40555;SDS011;26250;45.422;11.100;2023-08-21T22:53:17;14.88;;;13.38;;
40555;SDS011;26250;45.422;11.100;2023-08-21T22:55:53;15.85;;;12.10;;
40555;SDS011;26250;45.422;11.100;2023-08-21T22:58:24;14.88;;;12.88;;
40555;SDS011;26250;45.422;11.100;2023-08-21T23:00:51;13.73;;;12.32;;
40555;SDS011;26250;45.422;11.100;2023-08-21T23:03:18;18.45;;;11.77;;
40555;SDS011;26250;45.422;11.100;2023-08-21T23:05:51;24.75;;;13.65;;
40555;SDS011;26250;45.422;11.100;2023-08-21T23:08:22;15.45;;;13.95;;
40555;SDS011;26250;45.422;11.100;2023-08-21T23:10:51;15.15;;;13.13;;
40555;SDS011;26250;45.422;11.100;2023-08-21T23:13:18;14.88;;;11.98;;
40555;SDS011;26250;45.422;11.100;2023-08-21T23:15:45;15.65;;;13.25;;
40555;SDS011;26250;45.422;11.100;2023-08-21T23:18:13;14.90;;;11.50;;
40555;SDS011;26250;45.422;11.100;2023-08-21T23:20:40;15.50;;;11.88;;
40555;SDS011;26250;45.422;11.100;2023-08-21T23:23:07;16.20;;;10.75;;
40555;SDS011;26250;45.422;11.100;2023-08-21T23:25:34;19.15;;;12.35;;
40555;SDS011;26250;45.422;11.100;2023-08-21T23:28:02;16.73;;;11.93;;
40555;SDS011;26250;45.422;11.100;2023-08-21T23:30:29;13.50;;;12.27;;
40555;SDS011;26250;45.422;11.100;2023-08-21T23:32:56;15.00;;;11.15;;
40555;SDS011;26250;45.422;11.100;2023-08-21T23:35:23;26.50;;;11.32;;
40555;SDS011;26250;45.422;11.100;2023-08-21T23:37:50;23.73;;;12.95;;
40555;SDS011;26250;45.422;11.100;2023-08-21T23:40:17;24.17;;;12.23;;
40555;SDS011;26250;45.422;11.100;2023-08-21T23:42:44;14.32;;;11.25;;
40555;SDS011;26250;45.422;11.100;2023-08-21T23:45:11;14.15;;;11.93;;
40555;SDS011;26250;45.422;11.100;2023-08-21T23:47:38;12.77;;;11.00;;
40555;SDS011;26250;45.422;11.100;2023-08-21T23:50:06;17.20;;;11.57;;
40555;SDS011;26250;45.422;11.100;2023-08-21T23:52:36;12.77;;;11.38;;
40555;SDS011;26250;45.422;11.100;2023-08-21T23:55:03;12.20;;;11.00;;
40555;SDS011;26250;45.422;11.100;2023-08-21T23:57:31;14.43;;;11.27;;
40555;SDS011;26250;45.422;11.100;2023-08-21T23:59:58;13.60;;;12.20;;
